Time;durP1;ratioP1;P1;durP2;ratioP2;P2;SDS_P1;SDS_P2;PMS_P1;PMS_P2;Temp;Humidity;BMP_temperature;BMP_pressure;BME280_temperature;BME280_humidity;BME280_pressure;Samples;Min_cycle;Max_cycle;Signal;HPM_P1;HPM_P2
2024/01/24 00:00:27;;;;;;;1.02;0.40;;;;;;;;;;4942293;28;20399;-89
2024/01/24 00:02:59;;;;;;;2.28;0.50;;;;;;;;;;4937789;28;20052;-91
2024/01/24 00:05:31;;;;;;;2.50;0.65;;;;;;;;;;4936278;29;20056;-90
2024/01/24 00:08:02;;;;;;;4.90;0.50;;;;;;;;;;4926887;29;20048;-91
2024/01/24 00:10:35;;;;;;;2.45;0.47;;;;;;;;;;4923765;29;20054;-89
2024/01/24 00:13:07;;;;;;;2.97;0.68;;;;;;;;;;4907376;29;20067;-90
2024/01/24 00:15:37;;;;;;;3.80;0.80;;;;;;;;;;4919068;29;20509;-89
2024/01/24 00:18:07;;;;;;;2.47;0.60;;;;;;;;;;4913010;29;20059;-90
2024/01/24 00:20:41;;;;;;;3.42;0.52;;;;;;;;;;4930072;29;20063;-90
2024/01/24 00:23:13;;;;;;;;;;;;;;;;;;4918609;29;20058;-94
2024/01/24 00:25:43;;;;;;;5.25;1.10;;;;;;;;;;4945323;29;19923;-92
2024/01/24 00:28:16;;;;;;;5.55;0.50;;;;;;;;;;4916397;29;20051;-91
2024/01/24 00:30:47;;;;;;;2.72;0.55;;;;;;;;;;4926945;29;20059;-93
2024/01/24 00:33:17;;;;;;;2.35;0.40;;;;;;;;;;4911901;29;20079;-92
2024/01/24 00:35:51;;;;;;;3.00;0.50;;;;;;;;;;4921022;29;20509;-91
2024/01/24 00:38:23;;;;;;;4.75;0.70;;;;;;;;;;4927277;29;20055;-91
2024/01/24 00:40:54;;;;;;;2.10;0.60;;;;;;;;;;4915867;29;20055;-91
2024/01/24 00:43:25;;;;;;;1.88;0.50;;;;;;;;;;4911868;29;20070;-90
2024/01/24 00:45:56;;;;;;;1.75;0.40;;;;;;;;;;4940662;29;20055;-92
2024/01/24 00:48:26;;;;;;;2.83;0.50;;;;;;;;;;4931385;29;20051;-91
2024/01/24 00:50:58;;;;;;;2.67;0.68;;;;;;;;;;4943290;29;20044;-90
2024/01/24 00:53:31;;;;;;;2.35;0.45;;;;;;;;;;4937032;29;20043;-89
2024/01/24 00:56:03;;;;;;;4.93;0.60;;;;;;;;;;4916114;29;20052;-90
2024/01/24 00:58:33;;;;;;;4.78;0.60;;;;;;;;;;4939633;29;20067;-90
2024/01/24 01:01:03;;;;;;;2.35;0.45;;;;;;;;;;4948282;28;20051;-90
2024/01/24 01:03:33;;;;;;;3.35;0.45;;;;;;;;;;4935026;29;20051;-90
2024/01/24 01:06:04;;;;;;;3.15;0.52;;;;;;;;;;4939149;29;20180;-90
2024/01/24 01:08:35;;;;;;;2.85;0.95;;;;;;;;;;4936273;29;20078;-91
2024/01/24 01:11:07;;;;;;;3.45;0.52;;;;;;;;;;4926691;29;20060;-91
2024/01/24 01:13:37;;;;;;;3.40;0.50;;;;;;;;;;4938865;29;20051;-90
2024/01/24 01:16:07;;;;;;;2.88;0.60;;;;;;;;;;4923001;29;20418;-90
2024/01/24 01:18:38;;;;;;;4.97;0.70;;;;;;;;;;4930823;29;20055;-90
2024/01/24 01:21:10;;;;;;;7.82;0.63;;;;;;;;;;4927764;29;20051;-89
2024/01/24 01:23:40;;;;;;;7.20;1.00;;;;;;;;;;4933114;29;20502;-89
2024/01/24 01:26:10;;;;;;;2.90;0.75;;;;;;;;;;4961354;28;20055;-88
2024/01/24 01:28:41;;;;;;;4.68;0.40;;;;;;;;;;4930975;29;20406;-90
2024/01/24 01:31:11;;;;;;;2.60;0.50;;;;;;;;;;4936842;29;20062;-89
2024/01/24 01:33:46;;;;;;;2.13;0.52;;;;;;;;;;4936439;29;20047;-89
2024/01/24 01:36:17;;;;;;;0.93;0.50;;;;;;;;;;4947953;28;20044;-88
2024/01/24 01:38:51;;;;;;;2.25;0.70;;;;;;;;;;4957433;28;20070;-87
2024/01/24 01:45:09;;;;;;;3.15;0.50;;;;;;;;;;4924809;29;20146;-88
2024/01/24 01:47:43;;;;;;;3.25;0.50;;;;;;;;;;4919574;29;20059;-89
2024/01/24 01:50:19;;;;;;;3.30;0.52;;;;;;;;;;4932942;29;20067;-86
2024/01/24 01:52:49;;;;;;;3.90;0.65;;;;;;;;;;4925200;29;20055;-88
2024/01/24 01:55:30;;;;;;;3.10;0.57;;;;;;;;;;4929746;29;20425;-89
2024/01/24 01:58:02;;;;;;;7.20;0.60;;;;;;;;;;4916614;29;20051;-88
2024/01/24 02:00:33;;;;;;;2.13;0.52;;;;;;;;;;4940758;29;20051;-87
2024/01/24 02:03:07;;;;;;;1.20;0.55;;;;;;;;;;4938583;29;20052;-87
2024/01/24 02:05:38;;;;;;;1.65;0.70;;;;;;;;;;4923770;29;20047;-90
2024/01/24 02:08:10;;;;;;;1.90;0.57;;;;;;;;;;4939604;29;20383;-86
2024/01/24 02:10:40;;;;;;;2.67;0.77;;;;;;;;;;4907042;29;20048;-86
2024/01/24 02:13:11;;;;;;;3.50;0.73;;;;;;;;;;4917428;29;20074;-87
2024/01/24 02:15:41;;;;;;;2.80;0.57;;;;;;;;;;4939336;29;20048;-88
2024/01/24 02:18:11;;;;;;;3.70;0.65;;;;;;;;;;4945614;28;20055;-88
2024/01/24 02:20:42;;;;;;;5.32;0.50;;;;;;;;;;4954503;28;20051;-88
2024/01/24 02:23:17;;;;;;;5.90;0.60;;;;;;;;;;4966540;28;20057;-87
2024/01/24 02:25:52;;;;;;;2.05;0.65;;;;;;;;;;4931361;29;20062;-86
2024/01/24 02:28:25;;;;;;;6.07;0.65;;;;;;;;;;4945361;29;20058;-85
2024/01/24 02:30:55;;;;;;;;;;;;;;;;;;4942876;29;20044;-87
2024/01/24 02:33:26;;;;;;;4.07;1.10;;;;;;;;;;4931409;29;19923;-86
2024/01/24 02:35:57;;;;;;;4.35;1.20;;;;;;;;;;4961128;28;20387;-87
2024/01/24 02:38:28;;;;;;;10.15;0.88;;;;;;;;;;4946145;29;20395;-86
2024/01/24 02:40:58;;;;;;;3.42;0.90;;;;;;;;;;4956945;28;20052;-87
2024/01/24 02:43:28;;;;;;;2.42;0.57;;;;;;;;;;4958320;28;20055;-88
2024/01/24 02:46:00;;;;;;;9.07;0.60;;;;;;;;;;4936295;29;20043;-87
2024/01/24 02:48:32;;;;;;;8.50;0.80;;;;;;;;;;4936617;29;20418;-88
2024/01/24 02:51:02;;;;;;;1.77;0.50;;;;;;;;;;4959633;28;20051;-87
2024/01/24 02:53:33;;;;;;;3.38;0.60;;;;;;;;;;4913333;29;20066;-87
2024/01/24 02:56:04;;;;;;;4.72;0.68;;;;;;;;;;4942852;29;20513;-86
2024/01/24 02:58:34;;;;;;;2.25;0.70;;;;;;;;;;4930057;29;20058;-88
2024/01/24 03:01:06;;;;;;;1.63;0.70;;;;;;;;;;4961029;28;20418;-86
2024/01/24 03:03:40;;;;;;;3.03;0.70;;;;;;;;;;4940499;29;20052;-87
2024/01/24 03:06:11;;;;;;;7.32;0.82;;;;;;;;;;4959135;28;20062;-85
2024/01/24 03:08:57;;;;;;;1.75;0.75;;;;;;;;;;4952659;28;20043;-87
2024/01/24 03:11:27;;;;;;;4.00;0.63;;;;;;;;;;4943465;29;20509;-87
2024/01/24 03:13:59;;;;;;;2.75;0.65;;;;;;;;;;4967656;28;20055;-86
2024/01/24 03:16:29;;;;;;;4.18;0.75;;;;;;;;;;4960488;28;20051;-89
2024/01/24 03:19:00;;;;;;;6.65;0.68;;;;;;;;;;4960175;28;20131;-86
2024/01/24 03:21:31;;;;;;;3.90;1.13;;;;;;;;;;4962555;29;20486;-86
2024/01/24 03:24:08;;;;;;;2.78;0.60;;;;;;;;;;4946486;29;20043;-87
2024/01/24 03:26:41;;;;;;;1.73;0.70;;;;;;;;;;4953497;28;20051;-86
2024/01/24 03:29:12;;;;;;;3.05;0.65;;;;;;;;;;4957709;28;20528;-88
2024/01/24 03:31:43;;;;;;;4.32;0.60;;;;;;;;;;4951542;29;20058;-87
2024/01/24 03:34:14;;;;;;;3.53;0.60;;;;;;;;;;4969865;29;20062;-86
2024/01/24 03:36:45;;;;;;;3.30;0.73;;;;;;;;;;4956673;29;20062;-86
2024/01/24 03:39:16;;;;;;;2.97;0.60;;;;;;;;;;4971865;28;20065;-86
2024/01/24 03:41:46;;;;;;;4.47;0.70;;;;;;;;;;4968952;28;20062;-84
2024/01/24 03:44:17;;;;;;;4.10;0.50;;;;;;;;;;4949768;29;20066;-84
2024/01/24 03:46:48;;;;;;;2.45;0.60;;;;;;;;;;4949249;29;20508;-85
2024/01/24 03:49:20;;;;;;;3.97;0.75;;;;;;;;;;4952572;29;20050;-86
2024/01/24 03:51:51;;;;;;;1.50;0.50;;;;;;;;;;4966685;29;20055;-87
2024/01/24 03:54:22;;;;;;;5.85;0.60;;;;;;;;;;4943872;29;20501;-86
2024/01/24 03:56:52;;;;;;;3.88;0.50;;;;;;;;;;4928530;29;20383;-88
2024/01/24 03:59:23;;;;;;;2.30;0.32;;;;;;;;;;4959626;28;20059;-88
2024/01/24 04:01:53;;;;;;;2.17;0.63;;;;;;;;;;4959602;28;20501;-88
2024/01/24 04:04:23;;;;;;;5.93;0.60;;;;;;;;;;4958999;28;20055;-86
2024/01/24 04:06:54;;;;;;;1.58;0.47;;;;;;;;;;4959274;28;20043;-88
2024/01/24 04:09:25;;;;;;;3.17;0.55;;;;;;;;;;4944152;28;20055;-86
2024/01/24 04:11:56;;;;;;;1.45;0.40;;;;;;;;;;4957941;28;20051;-89
2024/01/24 04:14:26;;;;;;;3.42;0.65;;;;;;;;;;4940074;29;20055;-87
2024/01/24 04:16:58;;;;;;;1.75;0.55;;;;;;;;;;4957654;29;20058;-87
2024/01/24 04:19:29;;;;;;;;;;;;;;;;;;4940682;29;20498;-88
2024/01/24 04:22:00;;;;;;;2.85;0.40;;;;;;;;;;4940410;29;19923;-87
2024/01/24 04:24:30;;;;;;;1.75;0.50;;;;;;;;;;4940046;29;20062;-88
2024/01/24 04:27:02;;;;;;;1.67;0.52;;;;;;;;;;4941361;29;20479;-88
2024/01/24 04:29:33;;;;;;;4.40;0.80;;;;;;;;;;4940475;29;20059;-88
2024/01/24 04:32:04;;;;;;;1.58;0.50;;;;;;;;;;4940339;29;20051;-87
2024/01/24 04:34:34;;;;;;;0.68;0.40;;;;;;;;;;4940091;29;20078;-88
2024/01/24 04:37:04;;;;;;;2.42;0.50;;;;;;;;;;4941348;29;20055;-88
2024/01/24 04:39:37;;;;;;;7.95;0.50;;;;;;;;;;4939756;29;20062;-87
2024/01/24 04:42:07;;;;;;;3.40;0.60;;;;;;;;;;4940148;29;20066;-87
2024/01/24 04:44:44;;;;;;;2.03;0.40;;;;;;;;;;4940034;29;20487;-87
2024/01/24 04:47:15;;;;;;;1.27;0.40;;;;;;;;;;4955393;29;20055;-87
2024/01/24 04:49:46;;;;;;;7.22;0.40;;;;;;;;;;4939740;29;20047;-90
2024/01/24 04:52:17;;;;;;;7.38;0.52;;;;;;;;;;4955650;29;20051;-88
2024/01/24 04:54:48;;;;;;;3.63;0.47;;;;;;;;;;4939938;29;20494;-87
2024/01/24 04:57:19;;;;;;;6.05;0.70;;;;;;;;;;4939838;29;20055;-87
2024/01/24 04:59:49;;;;;;;4.57;0.82;;;;;;;;;;4956008;29;20054;-90
2024/01/24 05:02:24;;;;;;;4.95;0.50;;;;;;;;;;4940831;29;20063;-87
2024/01/24 05:05:17;;;;;;;5.68;0.40;;;;;;;;;;4943250;29;20051;-87
2024/01/24 05:07:49;;;;;;;2.75;0.40;;;;;;;;;;4940292;29;20179;-88
2024/01/24 05:10:20;;;;;;;4.07;0.47;;;;;;;;;;4943380;29;20591;-89
2024/01/24 05:12:51;;;;;;;2.55;0.30;;;;;;;;;;4956095;29;20051;-87
2024/01/24 05:15:22;;;;;;;3.35;0.40;;;;;;;;;;4955224;29;20051;-88
2024/01/24 05:17:53;;;;;;;8.50;0.50;;;;;;;;;;4957124;29;20043;-90
2024/01/24 05:20:25;;;;;;;4.97;0.73;;;;;;;;;;4940008;29;20077;-87
2024/01/24 05:22:57;;;;;;;4.82;0.50;;;;;;;;;;4954727;29;20055;-90
2024/01/24 05:25:27;;;;;;;7.00;1.67;;;;;;;;;;4954835;29;20051;-88
2024/01/24 05:27:58;;;;;;;2.97;0.52;;;;;;;;;;4955383;28;20051;-86
2024/01/24 05:30:29;;;;;;;7.20;0.60;;;;;;;;;;4941157;29;20398;-84
2024/01/24 05:33:07;;;;;;;3.92;0.60;;;;;;;;;;4939780;29;20063;-86
2024/01/24 05:35:37;;;;;;;2.05;0.32;;;;;;;;;;4956232;29;20062;-86
2024/01/24 05:38:08;;;;;;;4.97;0.40;;;;;;;;;;4939649;29;20055;-86
2024/01/24 05:40:38;;;;;;;3.75;0.63;;;;;;;;;;4923751;29;20051;-87
2024/01/24 05:43:09;;;;;;;2.50;0.50;;;;;;;;;;4956046;29;20059;-88
2024/01/24 05:45:41;;;;;;;8.10;0.70;;;;;;;;;;4940425;29;20059;-85
2024/01/24 05:48:14;;;;;;;4.88;0.47;;;;;;;;;;4939304;29;20048;-88
2024/01/24 05:50:44;;;;;;;4.03;0.40;;;;;;;;;;4939147;29;20058;-87
2024/01/24 05:53:16;;;;;;;6.07;0.75;;;;;;;;;;4955162;29;20058;-86
2024/01/24 05:55:46;;;;;;;7.20;0.50;;;;;;;;;;4938592;29;20051;-86
2024/01/24 05:58:18;;;;;;;1.17;0.50;;;;;;;;;;4954361;29;20062;-86
2024/01/24 06:00:48;;;;;;;2.53;0.40;;;;;;;;;;4954446;28;20059;-87
2024/01/24 06:03:18;;;;;;;4.78;0.43;;;;;;;;;;4955348;29;20062;-89
2024/01/24 06:05:49;;;;;;;5.45;0.52;;;;;;;;;;4939478;29;20051;-86
2024/01/24 06:08:21;;;;;;;5.43;0.50;;;;;;;;;;4924405;29;20047;-87
2024/01/24 06:10:50;;;;;;;4.97;0.52;;;;;;;;;;4940438;29;20055;-86
2024/01/24 06:13:23;;;;;;;4.53;0.50;;;;;;;;;;4938907;29;20047;-89
2024/01/24 06:15:53;;;;;;;2.53;0.60;;;;;;;;;;4939648;29;20071;-87
2024/01/24 06:18:25;;;;;;;3.28;0.52;;;;;;;;;;4954200;29;20055;-87
2024/01/24 06:20:56;;;;;;;7.38;0.60;;;;;;;;;;4923389;29;20051;-86
2024/01/24 06:23:26;;;;;;;4.97;0.65;;;;;;;;;;4923241;29;20047;-87
2024/01/24 06:25:58;;;;;;;5.63;0.77;;;;;;;;;;4955233;29;20410;-87
2024/01/24 06:28:28;;;;;;;4.72;0.60;;;;;;;;;;4954417;29;20062;-86
2024/01/24 06:30:59;;;;;;;3.13;0.52;;;;;;;;;;4940787;29;20058;-88
2024/01/24 06:33:30;;;;;;;2.78;0.38;;;;;;;;;;4939482;29;20482;-87
2024/01/24 06:36:00;;;;;;;4.50;0.47;;;;;;;;;;4922543;29;20062;-86
2024/01/24 06:38:30;;;;;;;1.83;0.77;;;;;;;;;;4953067;29;20501;-86
2024/01/24 06:41:02;;;;;;;2.17;0.60;;;;;;;;;;4953790;29;20055;-87
2024/01/24 06:43:35;;;;;;;1.95;0.50;;;;;;;;;;4937984;29;20078;-87
2024/01/24 06:46:04;;;;;;;;;;;;;;;;;;4954552;29;20051;-88
2024/01/24 06:48:36;;;;;;;5.65;0.60;;;;;;;;;;4945982;29;19923;-90
2024/01/24 06:51:06;;;;;;;4.05;0.47;;;;;;;;;;4950891;29;20055;-86
2024/01/24 06:53:39;;;;;;;1.10;0.50;;;;;;;;;;4966552;29;20144;-86
2024/01/24 06:56:09;;;;;;;3.60;0.60;;;;;;;;;;4940237;29;20058;-86
2024/01/24 06:58:40;;;;;;;5.75;0.52;;;;;;;;;;4954036;29;20112;-87
2024/01/24 07:01:11;;;;;;;3.88;0.50;;;;;;;;;;4955008;29;20062;-86
2024/01/24 07:03:42;;;;;;;4.22;0.40;;;;;;;;;;4953897;29;20071;-87
2024/01/24 07:06:13;;;;;;;1.98;0.40;;;;;;;;;;4922478;29;20054;-89
2024/01/24 07:08:43;;;;;;;1.02;0.40;;;;;;;;;;4954470;29;20047;-86
2024/01/24 07:11:13;;;;;;;4.28;0.50;;;;;;;;;;4937636;29;20055;-86
2024/01/24 07:13:44;;;;;;;4.53;0.57;;;;;;;;;;4922292;29;20059;-86
2024/01/24 07:16:15;;;;;;;4.05;0.80;;;;;;;;;;4937960;29;20051;-88
2024/01/24 07:18:45;;;;;;;5.97;0.52;;;;;;;;;;4938117;29;20059;-86
2024/01/24 07:21:15;;;;;;;1.92;0.52;;;;;;;;;;4938552;29;20043;-88
2024/01/24 07:23:45;;;;;;;2.50;0.68;;;;;;;;;;4953918;29;20047;-86
2024/01/24 07:26:18;;;;;;;1.80;0.50;;;;;;;;;;4952813;29;20055;-89
2024/01/24 07:28:48;;;;;;;2.85;0.43;;;;;;;;;;4953751;29;20050;-87
2024/01/24 07:31:20;;;;;;;6.00;0.57;;;;;;;;;;4937609;29;20055;-85
2024/01/24 07:33:50;;;;;;;6.10;0.52;;;;;;;;;;4937146;29;20379;-85
2024/01/24 07:36:23;;;;;;;6.80;0.57;;;;;;;;;;4939361;29;20047;-86
2024/01/24 07:38:53;;;;;;;2.88;0.50;;;;;;;;;;4937368;29;20066;-87
2024/01/24 07:41:24;;;;;;;1.05;0.60;;;;;;;;;;4924452;29;20510;-86
2024/01/24 07:43:54;;;;;;;5.10;0.60;;;;;;;;;;4954987;29;20051;-87
2024/01/24 07:46:25;;;;;;;3.95;0.63;;;;;;;;;;4953392;28;20056;-86
2024/01/24 07:48:56;;;;;;;2.38;0.65;;;;;;;;;;4940204;29;20067;-85
2024/01/24 07:51:26;;;;;;;3.30;0.77;;;;;;;;;;4941074;29;20051;-86
2024/01/24 07:53:56;;;;;;;3.03;0.57;;;;;;;;;;4957263;29;20055;-87
2024/01/24 07:56:28;;;;;;;6.43;0.80;;;;;;;;;;4956474;29;20395;-86
2024/01/24 07:59:00;;;;;;;4.28;0.73;;;;;;;;;;4940459;29;20055;-87
2024/01/24 08:01:32;;;;;;;2.30;0.50;;;;;;;;;;4941436;29;20055;-84
2024/01/24 08:04:03;;;;;;;3.22;0.52;;;;;;;;;;4940119;29;20062;-86
2024/01/24 08:06:33;;;;;;;2.50;0.50;;;;;;;;;;4957987;29;20405;-86
2024/01/24 08:09:05;;;;;;;4.40;0.52;;;;;;;;;;4957945;29;20047;-86
2024/01/24 08:11:40;;;;;;;1.63;0.40;;;;;;;;;;4956502;29;20402;-85
2024/01/24 08:14:12;;;;;;;4.22;0.85;;;;;;;;;;4940544;29;20127;-86
2024/01/24 08:17:05;;;;;;;5.57;1.55;;;;;;;;;;4941190;29;20054;-85
2024/01/24 08:19:36;;;;;;;6.95;0.80;;;;;;;;;;4955866;29;20047;-85
2024/01/24 08:22:07;;;;;;;4.93;0.40;;;;;;;;;;4925144;29;20061;-86
2024/01/24 08:24:37;;;;;;;11.77;0.80;;;;;;;;;;4924946;29;20403;-87
2024/01/24 08:27:08;;;;;;;5.32;0.65;;;;;;;;;;4955923;29;20035;-86
2024/01/24 08:29:39;;;;;;;6.78;0.88;;;;;;;;;;4939557;29;20074;-86
2024/01/24 08:32:15;;;;;;;10.18;0.80;;;;;;;;;;4939847;29;20051;-86
2024/01/24 08:34:46;;;;;;;8.13;0.60;;;;;;;;;;4956153;29;20051;-88
2024/01/24 08:37:17;;;;;;;2.70;0.65;;;;;;;;;;4940009;29;20501;-85
2024/01/24 08:39:50;;;;;;;4.85;0.93;;;;;;;;;;4939292;29;20059;-88
2024/01/24 08:42:21;;;;;;;2.17;0.60;;;;;;;;;;4956484;29;20055;-86
2024/01/24 08:44:51;;;;;;;3.55;0.70;;;;;;;;;;4956875;29;20055;-85
2024/01/24 08:47:21;;;;;;;3.92;0.70;;;;;;;;;;4940438;29;20055;-85
2024/01/24 08:49:53;;;;;;;28.08;1.10;;;;;;;;;;4924914;29;20051;-85
2024/01/24 08:52:27;;;;;;;9.05;0.75;;;;;;;;;;4924576;29;20063;-86
2024/01/24 08:54:58;;;;;;;1.90;0.70;;;;;;;;;;4924077;29;20055;-86
2024/01/24 08:57:29;;;;;;;5.05;0.77;;;;;;;;;;4919009;29;20058;-85
2024/01/24 09:00:07;;;;;;;2.00;0.63;;;;;;;;;;4954749;28;20074;-86
2024/01/24 09:02:38;;;;;;;9.57;0.90;;;;;;;;;;4951951;28;20071;-85
2024/01/24 09:05:09;;;;;;;3.10;0.60;;;;;;;;;;4951480;29;20058;-86
2024/01/24 09:07:40;;;;;;;10.55;0.80;;;;;;;;;;4955540;29;20051;-86
2024/01/24 09:10:10;;;;;;;4.70;0.70;;;;;;;;;;4939329;29;20062;-86
2024/01/24 09:12:41;;;;;;;4.57;0.68;;;;;;;;;;4923695;29;20055;-87
2024/01/24 09:15:13;;;;;;;11.50;1.02;;;;;;;;;;4921255;29;20066;-86
2024/01/24 09:17:44;;;;;;;4.72;0.60;;;;;;;;;;4920141;29;20055;-87
2024/01/24 09:20:15;;;;;;;19.88;1.40;;;;;;;;;;4954244;28;20051;-88
2024/01/24 09:22:49;;;;;;;7.07;0.80;;;;;;;;;;4924202;29;20051;-86
2024/01/24 09:25:23;;;;;;;6.47;0.65;;;;;;;;;;4941213;29;20051;-85
2024/01/24 09:27:55;;;;;;;9.18;0.70;;;;;;;;;;4924084;29;20058;-86
2024/01/24 09:30:26;;;;;;;17.63;1.98;;;;;;;;;;4924753;29;20127;-85
2024/01/24 09:32:57;;;;;;;21.27;1.52;;;;;;;;;;4940579;29;20052;-85
2024/01/24 09:35:28;;;;;;;20.55;1.40;;;;;;;;;;4923189;29;20054;-88
2024/01/24 09:37:59;;;;;;;5.35;0.70;;;;;;;;;;4923160;29;20066;-88
2024/01/24 09:40:30;;;;;;;25.70;1.08;;;;;;;;;;4954779;29;20051;-87
2024/01/24 09:43:02;;;;;;;1.15;0.50;;;;;;;;;;4953544;28;20058;-85
2024/01/24 09:45:38;;;;;;;5.68;0.50;;;;;;;;;;4955334;29;20042;-86
2024/01/24 09:48:11;;;;;;;0.40;0.32;;;;;;;;;;4970960;28;20062;-85
2024/01/24 09:50:42;;;;;;;0.57;0.38;;;;;;;;;;4955281;29;20039;-86
2024/01/24 09:53:17;;;;;;;4.68;0.32;;;;;;;;;;4954163;29;20043;-86
2024/01/24 09:55:49;;;;;;;1.25;0.30;;;;;;;;;;4938494;29;20058;-85
2024/01/24 09:58:20;;;;;;;1.30;0.20;;;;;;;;;;4936417;28;20067;-87
2024/01/24 10:00:52;;;;;;;1.88;0.50;;;;;;;;;;4937201;29;20059;-87
2024/01/24 10:03:25;;;;;;;2.40;0.30;;;;;;;;;;4936568;29;20414;-87
2024/01/24 10:05:56;;;;;;;1.20;0.40;;;;;;;;;;4950765;28;20417;-87
2024/01/24 10:08:28;;;;;;;2.95;0.40;;;;;;;;;;4928374;29;20054;-87
2024/01/24 10:11:00;;;;;;;1.55;0.32;;;;;;;;;;4925575;29;20406;-85
2024/01/24 10:13:31;;;;;;;3.97;0.35;;;;;;;;;;4933650;29;20059;-87
2024/01/24 10:16:07;;;;;;;0.85;0.30;;;;;;;;;;4932533;29;20058;-86
2024/01/24 10:18:41;;;;;;;0.60;0.30;;;;;;;;;;4932394;29;20055;-88
2024/01/24 10:21:13;;;;;;;9.65;0.40;;;;;;;;;;4932694;29;20051;-87
2024/01/24 10:23:44;;;;;;;4.13;0.47;;;;;;;;;;4933282;29;20061;-86
2024/01/24 10:26:16;;;;;;;4.97;0.40;;;;;;;;;;4932973;29;20056;-87
2024/01/24 10:33:03;;;;;;;1.45;0.75;;;;;;;;;;4910322;29;20052;-87
2024/01/24 10:35:34;;;;;;;3.38;0.60;;;;;;;;;;4932768;29;20513;-86
2024/01/24 10:38:05;;;;;;;3.28;0.60;;;;;;;;;;4931664;29;20509;-87
2024/01/24 10:40:39;;;;;;;3.47;0.80;;;;;;;;;;4932952;29;20086;-86
2024/01/24 10:43:12;;;;;;;2.80;0.80;;;;;;;;;;4944576;28;20051;-86
2024/01/24 10:45:49;;;;;;;4.05;0.82;;;;;;;;;;4935170;28;20054;-87
2024/01/24 10:48:20;;;;;;;8.05;1.00;;;;;;;;;;4950845;28;20533;-86
2024/01/24 10:50:53;;;;;;;5.70;0.93;;;;;;;;;;4935050;29;20051;-87
2024/01/24 10:53:24;;;;;;;5.00;0.80;;;;;;;;;;4935437;28;20426;-86
2024/01/24 10:55:58;;;;;;;5.57;0.50;;;;;;;;;;4920196;29;20047;-85
2024/01/24 10:58:30;;;;;;;5.50;0.90;;;;;;;;;;4953334;28;20039;-86
2024/01/24 11:01:01;;;;;;;5.57;0.82;;;;;;;;;;4950531;28;20087;-85
2024/01/24 11:03:32;;;;;;;3.35;1.10;;;;;;;;;;4953394;28;20043;-86
2024/01/24 11:06:08;;;;;;;3.00;0.70;;;;;;;;;;4950869;28;20058;-86
2024/01/24 11:08:44;;;;;;;4.72;1.30;;;;;;;;;;4920109;29;20059;-85
2024/01/24 11:11:22;;;;;;;4.63;1.00;;;;;;;;;;4934893;29;20418;-85
2024/01/24 11:13:52;;;;;;;6.68;1.00;;;;;;;;;;4934653;29;20062;-87
2024/01/24 11:16:26;;;;;;;5.53;0.90;;;;;;;;;;4935176;29;20062;-85
2024/01/24 11:19:20;;;;;;;7.57;1.52;;;;;;;;;;4935214;29;20039;-84
2024/01/24 11:21:55;;;;;;;6.88;1.50;;;;;;;;;;4935717;29;20073;-84
2024/01/24 11:28:38;;;;;;;3.95;0.93;;;;;;;;;;4957537;28;20047;-85
2024/01/24 11:31:47;;;;;;;6.40;0.93;;;;;;;;;;4969175;28;20039;-82
2024/01/24 11:34:19;;;;;;;6.03;1.38;;;;;;;;;;4937241;29;20059;-82
2024/01/24 11:36:52;;;;;;;;;;;;;;;;;;4940095;29;20062;-82
2024/01/24 11:39:35;;;;;;;4.13;1.15;;;;;;;;;;4934223;29;20436;-82
2024/01/24 11:42:30;;;;;;;3.92;1.17;;;;;;;;;;4943339;29;20043;-83
2024/01/24 11:45:19;;;;;;;5.47;1.40;;;;;;;;;;4956181;29;20055;-83
2024/01/24 11:47:50;;;;;;;4.57;1.60;;;;;;;;;;4957681;29;20062;-85
2024/01/24 11:50:21;;;;;;;5.05;1.35;;;;;;;;;;4955429;29;20055;-84
2024/01/24 11:52:59;;;;;;;4.45;1.25;;;;;;;;;;4954010;29;20055;-83
2024/01/24 11:55:31;;;;;;;6.43;1.70;;;;;;;;;;4957878;29;20046;-82
2024/01/24 11:58:03;;;;;;;6.68;1.40;;;;;;;;;;4957510;29;20046;-83
2024/01/24 12:00:34;;;;;;;5.50;1.25;;;;;;;;;;4971444;28;20055;-83
2024/01/24 12:03:05;;;;;;;3.45;1.30;;;;;;;;;;4939978;29;20055;-83
2024/01/24 12:05:36;;;;;;;3.45;1.27;;;;;;;;;;4958738;28;20058;-86
2024/01/24 12:08:56;;;;;;;5.20;1.38;;;;;;;;;;4945372;29;20062;-85
2024/01/24 12:11:52;;;;;;;5.45;1.35;;;;;;;;;;4964619;29;20055;-84
2024/01/24 12:14:23;;;;;;;;;;;;;;;;;;4958334;29;20059;-83
2024/01/24 12:17:07;;;;;;;4.60;1.15;;;;;;;;;;4978611;28;19922;-83
2024/01/24 12:23:20;;;;;;;5.75;1.00;;;;;;;;;;4980020;28;20405;-84
2024/01/24 12:25:52;;;;;;;5.65;1.20;;;;;;;;;;4965988;28;20042;-83
2024/01/24 12:28:24;;;;;;;4.13;1.90;;;;;;;;;;4951294;28;20044;-85
2024/01/24 12:30:55;;;;;;;3.85;1.20;;;;;;;;;;4939251;28;20053;-84
2024/01/24 12:34:07;;;;;;;5.22;1.15;;;;;;;;;;4937081;29;20046;-85
2024/01/24 12:36:56;;;;;;;4.90;1.05;;;;;;;;;;4918560;29;20060;-86
2024/01/24 12:39:31;;;;;;;6.50;1.27;;;;;;;;;;4902532;29;20052;-85
2024/01/24 12:42:02;;;;;;;4.20;1.40;;;;;;;;;;4922157;29;20055;-83
2024/01/24 12:44:34;;;;;;;3.25;0.63;;;;;;;;;;4907346;29;20064;-86
2024/01/24 12:47:05;;;;;;;6.05;1.40;;;;;;;;;;4895670;29;20075;-85
2024/01/24 12:49:36;;;;;;;4.70;0.70;;;;;;;;;;4909183;29;20051;-85
2024/01/24 12:52:06;;;;;;;3.03;0.60;;;;;;;;;;4899543;29;20063;-84
2024/01/24 12:54:36;;;;;;;2.83;0.50;;;;;;;;;;4915663;29;20157;-84
2024/01/24 12:57:09;;;;;;;3.17;0.60;;;;;;;;;;4883731;29;20052;-87
2024/01/24 12:59:40;;;;;;;2.97;0.50;;;;;;;;;;4915201;29;20048;-85
2024/01/24 13:02:12;;;;;;;4.03;0.70;;;;;;;;;;4914824;29;20064;-84
2024/01/24 13:04:45;;;;;;;3.58;0.65;;;;;;;;;;4915173;29;20052;-86
2024/01/24 13:07:17;;;;;;;1.88;0.73;;;;;;;;;;4908730;29;20043;-85
2024/01/24 13:09:50;;;;;;;2.75;0.47;;;;;;;;;;4900522;29;20098;-85
2024/01/24 13:12:25;;;;;;;8.20;6.00;;;;;;;;;;4957809;28;20050;-85
2024/01/24 13:14:56;;;;;;;3.38;0.65;;;;;;;;;;4956530;29;20031;-85
2024/01/24 13:17:28;;;;;;;2.35;0.60;;;;;;;;;;4947248;29;20047;-85
2024/01/24 13:19:59;;;;;;;13.90;4.30;;;;;;;;;;4921948;29;20051;-85
2024/01/24 13:22:29;;;;;;;2.70;0.80;;;;;;;;;;4936183;29;20055;-84
2024/01/24 13:25:00;;;;;;;6.95;1.55;;;;;;;;;;4931056;29;20062;-84
2024/01/24 13:27:32;;;;;;;2.95;0.63;;;;;;;;;;4942566;28;20051;-85
2024/01/24 13:43:46;;;;;;;7.22;1.48;;;;;;;;;;4948933;29;20055;-83
2024/01/24 13:46:47;;;;;;;3.60;0.90;;;;;;;;;;4937939;29;20047;-84
2024/01/24 13:49:50;;;;;;;3.53;0.90;;;;;;;;;;4926213;29;20059;-86
2024/01/24 13:52:48;;;;;;;4.88;1.80;;;;;;;;;;4935273;29;20060;-84
2024/01/24 13:55:23;;;;;;;5.00;0.90;;;;;;;;;;4954554;29;20055;-84
2024/01/24 13:58:00;;;;;;;5.20;1.25;;;;;;;;;;4954384;29;20062;-83
2024/01/24 14:00:38;;;;;;;3.47;0.77;;;;;;;;;;4954123;29;20043;-86
2024/01/24 14:03:19;;;;;;;6.35;1.23;;;;;;;;;;4953652;28;20390;-85
2024/01/24 14:06:03;;;;;;;3.95;0.60;;;;;;;;;;4938387;29;20054;-85
2024/01/24 14:08:37;;;;;;;4.55;1.35;;;;;;;;;;4956504;28;20054;-84
2024/01/24 14:11:15;;;;;;;5.72;2.25;;;;;;;;;;4931971;29;20062;-85
2024/01/24 14:13:53;;;;;;;1.75;0.68;;;;;;;;;;4936564;29;20050;-84
2024/01/24 14:16:33;;;;;;;1.65;0.73;;;;;;;;;;4954503;29;20413;-83
2024/01/24 14:19:21;;;;;;;1.67;0.73;;;;;;;;;;4953938;29;20047;-84
2024/01/24 14:22:14;;;;;;;2.92;0.65;;;;;;;;;;4933506;29;20054;-83
2024/01/24 14:24:55;;;;;;;2.20;0.68;;;;;;;;;;4937306;29;20055;-83
2024/01/24 14:27:32;;;;;;;2.88;0.80;;;;;;;;;;4935962;29;20051;-83
2024/01/24 14:30:11;;;;;;;2.30;0.63;;;;;;;;;;4953141;29;20563;-85
2024/01/24 14:32:56;;;;;;;4.10;1.05;;;;;;;;;;4954105;29;20047;-85
2024/01/24 14:35:30;;;;;;;2.42;0.50;;;;;;;;;;4953738;29;20051;-83
2024/01/24 14:38:02;;;;;;;2.13;0.52;;;;;;;;;;4949744;28;20517;-80
2024/01/24 14:40:33;;;;;;;3.30;0.70;;;;;;;;;;4953134;28;20054;-82
2024/01/24 14:43:04;;;;;;;1.42;0.40;;;;;;;;;;4954185;29;20059;-83
2024/01/24 14:45:34;;;;;;;2.65;0.50;;;;;;;;;;4935852;29;20059;-82
2024/01/24 14:48:04;;;;;;;3.03;0.70;;;;;;;;;;4953935;29;20429;-81
2024/01/24 14:50:34;;;;;;;4.30;0.63;;;;;;;;;;4954166;29;20051;-83
2024/01/24 14:53:04;;;;;;;2.88;0.85;;;;;;;;;;4961335;28;20057;-83
2024/01/24 14:55:35;;;;;;;4.68;0.40;;;;;;;;;;4973567;28;20065;-85
2024/01/24 14:58:05;;;;;;;3.35;0.73;;;;;;;;;;4953702;28;20047;-83
2024/01/24 15:00:36;;;;;;;3.83;1.38;;;;;;;;;;4921045;29;20047;-83
2024/01/24 15:03:07;;;;;;;4.82;0.55;;;;;;;;;;4947410;29;20413;-83
2024/01/24 15:05:42;;;;;;;2.58;0.40;;;;;;;;;;4953475;29;20047;-83
2024/01/24 15:08:15;;;;;;;1.83;0.40;;;;;;;;;;4917428;29;20052;-85
2024/01/24 15:10:47;;;;;;;4.95;1.83;;;;;;;;;;4901982;29;20060;-84
2024/01/24 15:13:17;;;;;;;2.58;0.35;;;;;;;;;;4916810;29;20137;-85
2024/01/24 15:15:51;;;;;;;2.90;0.50;;;;;;;;;;4934464;29;20498;-83
2024/01/24 15:18:25;;;;;;;1.50;0.50;;;;;;;;;;4934368;29;20052;-83
2024/01/24 15:20:56;;;;;;;3.08;0.45;;;;;;;;;;4934856;29;20055;-84
2024/01/24 15:23:39;;;;;;;3.03;0.68;;;;;;;;;;4920011;29;20050;-83
2024/01/24 15:26:09;;;;;;;0.40;0.28;;;;;;;;;;4946184;29;20523;-81
2024/01/24 15:28:41;;;;;;;1.45;0.68;;;;;;;;;;4953512;29;20535;-81
2024/01/24 15:31:12;;;;;;;2.55;0.43;;;;;;;;;;4952520;29;20052;-83
2024/01/24 15:33:42;;;;;;;2.35;1.05;;;;;;;;;;4952219;29;20078;-83
2024/01/24 15:36:14;;;;;;;1.25;0.30;;;;;;;;;;4951643;29;20593;-82
2024/01/24 15:38:50;;;;;;;2.88;0.40;;;;;;;;;;4950728;29;20381;-85
2024/01/24 15:41:27;;;;;;;1.38;0.32;;;;;;;;;;4953400;29;20039;-87
2024/01/24 15:44:06;;;;;;;2.70;0.70;;;;;;;;;;4953663;29;20059;-83
2024/01/24 15:46:37;;;;;;;3.63;0.70;;;;;;;;;;4936216;29;20051;-88
2024/01/24 15:49:07;;;;;;;1.55;0.52;;;;;;;;;;4920446;29;20435;-84